DWI209 KEWR-MDSD
Flight info
| Callsign | DWI209 |
|---|---|
| Flight time | N/A |
| Altitude | 37000 |
| Route | ELVAE DCT NECCK DCT DIXIE Y481 OHRYN/N0464F380 Y488 WEBBB/M080F380 Y488 HOBOH/M080F370 Y488 CHUBY/M080F380 Y488 SAUCR/M080F370 L453 BOREX/M080F390 L453 LAMER/N0458F390 L453 RODRK/N0460F380 DCT POKEG/N0459F390 UT17 KOBET KOBET2H |
| Aircraft | B738/M-SDE2E3FGHIRWXY/LB1 |
Departure
| Time | 2026-04-30 22:37 |
|---|---|
| Airport | Newark Liberty International Airport (KEWR) |
Arrival
| Time | N/A |
|---|---|
| Airport | Las Américas International Airport (MDSD) |
| Time | Latitude | Longitude | Altitude | Speed | Heading |
|---|---|---|---|---|---|
| 2026-04-30 21:50 | 40.68362 | -74.18209 | 21 ft | 0 kts | 274° |
| 2026-04-30 21:55 | 40.68299 | -74.18411 | 22 ft | 10 kts | 5° |
| 2026-04-30 21:56 | 40.68312 | -74.18649 | 21 ft | 0 kts | 336° |
| 2026-04-30 21:57 | 40.68477 | -74.18652 | 22 ft | 0 kts | 221° |
| 2026-04-30 22:18 | 40.68478 | -74.18651 | 21 ft | 1 kts | 221° |
| 2026-04-30 22:18 | 40.68504 | -74.18621 | 23 ft | 3 kts | 221° |
| 2026-04-30 22:19 | 40.68533 | -74.18587 | 23 ft | 3 kts | 212° |
| 2026-04-30 22:19 | 40.68550 | -74.18578 | 22 ft | 3 kts | 176° |
| 2026-04-30 22:19 | 40.68577 | -74.18591 | 22 ft | 0 kts | 144° |
| 2026-04-30 22:28 | 40.68574 | -74.18588 | 21 ft | 4 kts | 144° |
| 2026-04-30 22:28 | 40.68544 | -74.18555 | 21 ft | 6 kts | 132° |
| 2026-04-30 22:29 | 40.68509 | -74.18395 | 21 ft | 6 kts | 96° |
| 2026-04-30 22:29 | 40.68504 | -74.18341 | 22 ft | 6 kts | 98° |
| 2026-04-30 22:30 | 40.68484 | -74.18134 | 21 ft | 6 kts | 111° |
| 2026-04-30 22:31 | 40.68411 | -74.18022 | 21 ft | 5 kts | 114° |
| 2026-04-30 22:32 | 40.68345 | -74.17829 | 21 ft | 10 kts | 115° |
| 2026-04-30 22:32 | 40.68242 | -74.17778 | 21 ft | 9 kts | 204° |
| 2026-04-30 22:33 | 40.68030 | -74.17911 | 21 ft | 13 kts | 206° |
| 2026-04-30 22:33 | 40.67875 | -74.18011 | 21 ft | 12 kts | 205° |
| 2026-04-30 22:34 | 40.67658 | -74.18133 | 21 ft | 11 kts | 159° |
| 2026-04-30 22:35 | 40.67564 | -74.17981 | 23 ft | 10 kts | 111° |
| 2026-04-30 22:36 | 40.68846 | -74.17115 | 24 ft | 178 kts | 26° |
| 2026-04-30 22:36 | 40.70095 | -74.16255 | 454 ft | 216 kts | 26° |
| 2026-04-30 22:37 | 40.74143 | -74.12802 | 2046 ft | 270 kts | 29° |
| 2026-04-30 22:37 | 40.75673 | -74.11549 | 1905 ft | 247 kts | 27° |
| 2026-04-30 22:37 | 40.78508 | -74.11782 | 1839 ft | 203 kts | 313° |
| 2026-04-30 22:38 | 40.80212 | -74.14683 | 1884 ft | 216 kts | 296° |
| 2026-04-30 22:38 | 40.81061 | -74.18943 | 1868 ft | 250 kts | 282° |
| 2026-04-30 22:39 | 40.81348 | -74.21204 | 2049 ft | 250 kts | 280° |
| 2026-04-30 22:39 | 40.82093 | -74.28114 | 4734 ft | 253 kts | 280° |
| 2026-04-30 22:40 | 40.82692 | -74.35163 | 7266 ft | 261 kts | 275° |
| 2026-04-30 22:41 | 40.83079 | -74.42446 | 9746 ft | 268 kts | 272° |
| 2026-04-30 22:41 | 40.83286 | -74.47606 | 10484 ft | 302 kts | 273° |
| 2026-04-30 22:42 | 40.81247 | -74.58700 | 12464 ft | 340 kts | 220° |
| 2026-04-30 22:43 | 40.76715 | -74.60501 | 13741 ft | 359 kts | 179° |
| 2026-04-30 22:43 | 40.72101 | -74.57723 | 14756 ft | 387 kts | 140° |
| 2026-04-30 22:44 | 40.68709 | -74.52021 | 15811 ft | 402 kts | 129° |
| 2026-04-30 22:45 | 40.62325 | -74.39518 | 17929 ft | 421 kts | 129° |
| 2026-04-30 22:45 | 40.59105 | -74.32992 | 19125 ft | 426 kts | 129° |
| 2026-04-30 22:46 | 40.55892 | -74.26434 | 20283 ft | 432 kts | 129° |
| 2026-04-30 22:47 | 40.49300 | -74.12864 | 22398 ft | 447 kts | 129° |
| 2026-04-30 22:47 | 40.45951 | -74.05872 | 23115 ft | 463 kts | 125° |
| 2026-04-30 22:48 | 40.43159 | -73.98113 | 23849 ft | 462 kts | 134° |
| 2026-04-30 22:49 | 40.36844 | -73.88770 | 25151 ft | 462 kts | 138° |
| 2026-04-30 22:49 | 40.30415 | -73.79131 | 25943 ft | 476 kts | 137° |
| 2026-04-30 22:50 | 40.22375 | -73.67115 | 27272 ft | 481 kts | 137° |
| 2026-04-30 22:51 | 40.17941 | -73.60486 | 27840 ft | 486 kts | 137° |
| 2026-04-30 22:51 | 40.13507 | -73.53834 | 28751 ft | 483 kts | 137° |
| 2026-04-30 22:52 | 40.11311 | -73.50523 | 29273 ft | 480 kts | 137° |
| 2026-04-30 22:52 | 40.06951 | -73.43924 | 30129 ft | 478 kts | 137° |
| 2026-04-30 22:53 | 40.02672 | -73.37296 | 30861 ft | 481 kts | 132° |
| 2026-04-30 22:53 | 39.98577 | -73.30509 | 31535 ft | 476 kts | 137° |
| 2026-04-30 22:53 | 39.96552 | -73.27076 | 31836 ft | 484 kts | 127° |
| 2026-04-30 22:54 | 39.94046 | -73.18814 | 32609 ft | 493 kts | 112° |
| 2026-04-30 22:55 | 39.91041 | -73.05978 | 33548 ft | 493 kts | 113° |
| 2026-04-30 22:55 | 39.88975 | -72.97469 | 34170 ft | 491 kts | 113° |
| 2026-04-30 22:56 | 39.86679 | -72.89113 | 34507 ft | 485 kts | 125° |
| 2026-04-30 22:56 | 39.80233 | -72.79614 | 35206 ft | 465 kts | 144° |
| 2026-04-30 22:57 | 39.75568 | -72.73709 | 35582 ft | 469 kts | 143° |
| 2026-04-30 22:57 | 39.70963 | -72.67745 | 36021 ft | 470 kts | 143° |
| 2026-04-30 22:58 | 39.66324 | -72.61735 | 36410 ft | 471 kts | 143° |
| 2026-04-30 22:59 | 39.59359 | -72.52758 | 37089 ft | 470 kts | 143° |
| 2026-04-30 22:59 | 39.52353 | -72.43776 | 37609 ft | 472 kts | 144° |